createdAt,value
2022-09-11T00:04:48.552Z,1.58
2022-09-11T00:09:49.803Z,1.17
2022-09-11T00:14:51.746Z,1.37
2022-09-11T00:19:53.103Z,1.38
2022-09-11T00:24:55.054Z,1.15
2022-09-11T00:29:56.303Z,1.23
2022-09-11T00:34:57.542Z,1.20
2022-09-11T00:39:58.835Z,1.60
2022-09-11T00:45:04.328Z,1.50
2022-09-11T00:50:13.471Z,1.60
2022-09-11T00:55:15.391Z,1.45
2022-09-11T01:00:16.822Z,1.40
2022-09-11T01:05:19.107Z,1.50
2022-09-11T01:10:24.997Z,1.63
2022-09-11T01:15:44.589Z,1.30
2022-09-11T01:21:18.133Z,1.67
2022-09-11T01:26:38.334Z,1.50
2022-09-11T01:31:56.586Z,1.60
2022-09-11T01:37:01.740Z,1.47
2022-09-11T01:42:08.977Z,2.20
2022-09-11T01:47:10.882Z,1.75
2022-09-11T01:52:15.585Z,1.95
2022-09-11T01:57:22.775Z,1.40
2022-09-11T02:02:30.843Z,1.60
2022-09-11T02:07:35.816Z,1.80
2022-09-11T02:12:40.989Z,1.77
2022-09-11T02:18:09.480Z,1.50
2022-09-11T02:23:11.149Z,1.95
2022-09-11T02:28:12.405Z,1.90
2022-09-11T02:33:33.702Z,2.10
2022-09-11T02:39:04.506Z,2.00
2022-09-11T02:44:11.924Z,2.10
2022-09-11T02:49:26.504Z,1.90
2022-09-11T02:54:27.718Z,1.90
2022-09-11T02:59:52.018Z,1.90
2022-09-11T03:04:53.363Z,2.07
2022-09-11T03:09:54.644Z,1.92
2022-09-11T03:14:57.105Z,2.10
2022-09-11T03:19:58.354Z,2.10
2022-09-11T03:24:59.634Z,2.10
2022-09-11T03:30:00.943Z,2.33
2022-09-11T03:35:02.360Z,2.10
2022-09-11T03:40:04.597Z,2.30
2022-09-11T03:45:06.012Z,2.20
2022-09-11T03:50:07.912Z,2.33
2022-09-11T03:55:09.338Z,2.60
2022-09-11T04:00:11.157Z,2.28
2022-09-11T04:05:15.042Z,2.35
2022-09-11T04:10:18.258Z,2.40
2022-09-11T04:15:19.498Z,2.20
2022-09-11T04:20:20.791Z,2.80
2022-09-11T04:25:22.051Z,2.53
2022-09-11T04:30:23.352Z,2.60
2022-09-11T04:35:24.701Z,3.15
2022-09-11T04:40:25.949Z,2.67
2022-09-11T04:45:27.640Z,2.33
2022-09-11T04:50:29.153Z,2.22
2022-09-11T04:55:30.410Z,2.20
2022-09-11T05:00:32.826Z,2.50
2022-09-11T05:05:34.307Z,2.60
2022-09-11T05:10:36.936Z,2.60
2022-09-11T05:15:38.165Z,2.40
2022-09-11T05:20:40.684Z,2.40
2022-09-11T05:25:45.031Z,3.15
2022-09-11T05:30:46.381Z,2.60
2022-09-11T05:35:48.183Z,2.67
2022-09-11T05:40:52.774Z,2.67
2022-09-11T05:45:55.136Z,2.80
2022-09-11T05:50:59.502Z,2.87
2022-09-11T05:56:12.145Z,3.40
2022-09-11T06:01:15.093Z,3.13
2022-09-11T06:06:17.418Z,3.20
2022-09-11T06:11:19.693Z,3.30
2022-09-11T06:16:21.789Z,2.97
2022-09-11T06:21:24.114Z,3.30
2022-09-11T06:26:25.951Z,3.20
2022-09-11T06:31:27.385Z,2.80
2022-09-11T06:36:29.977Z,4.07
2022-09-11T06:41:31.849Z,3.17
2022-09-11T06:46:33.119Z,4.03
2022-09-11T06:51:35.897Z,3.40
2022-09-11T06:56:37.167Z,3.33
2022-09-11T07:01:39.864Z,3.17
2022-09-11T07:06:44.348Z,3.40
2022-09-11T07:11:46.781Z,3.40
2022-09-11T07:16:52.873Z,3.50
2022-09-11T07:21:57.147Z,3.47
2022-09-11T07:26:58.767Z,3.30
2022-09-11T07:32:00.126Z,3.43
2022-09-11T07:37:01.388Z,3.43
2022-09-11T07:42:03.116Z,3.53
2022-09-11T07:47:05.462Z,3.95
2022-09-11T07:52:06.831Z,3.20
2022-09-11T07:57:08.126Z,3.38
2022-09-11T08:02:11.299Z,3.15
2022-09-11T08:07:12.591Z,3.30
2022-09-11T08:12:13.919Z,3.40
2022-09-11T08:17:19.033Z,4.30
2022-09-11T08:22:20.752Z,3.93
2022-09-11T08:27:22.071Z,4.10
2022-09-11T08:32:23.360Z,3.72
2022-09-11T08:37:24.623Z,3.97
2022-09-11T08:42:27.225Z,3.77
2022-09-11T08:47:31.077Z,3.70
2022-09-11T08:52:32.946Z,3.80
2022-09-11T08:57:47.637Z,4.23
2022-09-11T09:02:55.048Z,4.38
2022-09-11T09:08:35.110Z,4.25
2022-09-11T09:13:39.453Z,4.53
2022-09-11T09:18:43.957Z,4.17
2022-09-11T09:23:49.495Z,4.43
2022-09-11T09:28:52.360Z,4.43
2022-09-11T09:34:00.311Z,4.10
2022-09-11T09:39:02.510Z,4.32
2022-09-11T09:44:23.905Z,4.22
2022-09-11T09:49:30.559Z,4.10
2022-09-11T09:54:37.005Z,4.40
2022-09-11T10:00:04.383Z,4.30
2022-09-11T10:05:07.024Z,4.23
2022-09-11T10:10:20.486Z,3.70
2022-09-11T10:15:22.514Z,4.07
2022-09-11T10:20:26.788Z,12.27
2022-09-11T10:25:30.287Z,4.10
2022-09-11T10:30:36.571Z,3.95
2022-09-11T10:35:37.893Z,4.10
2022-09-11T10:40:50.211Z,4.47
2022-09-11T10:46:11.254Z,4.47
2022-09-11T10:51:12.871Z,4.22
2022-09-11T10:56:15.129Z,4.17
2022-09-11T11:01:16.473Z,4.30
2022-09-11T11:06:23.987Z,4.25
2022-09-11T11:11:39.322Z,5.10
2022-09-11T11:16:47.068Z,4.40
2022-09-11T11:22:06.312Z,3.50
2022-09-11T11:27:19.812Z,3.80
2022-09-11T11:32:36.679Z,3.80
2022-09-11T11:37:41.608Z,4.43
2022-09-11T11:42:46.610Z,3.90
2022-09-11T11:47:49.357Z,3.70
2022-09-11T11:53:12.322Z,3.70
2022-09-11T11:58:19.376Z,3.70
2022-09-11T12:03:24.881Z,3.35
2022-09-11T12:08:27.754Z,3.40
2022-09-11T12:13:35.207Z,3.35
2022-09-11T12:18:42.112Z,3.20
2022-09-11T12:23:47.229Z,3.57
2022-09-11T12:29:07.462Z,3.42
2022-09-11T12:34:15.754Z,3.38
2022-09-11T12:39:35.468Z,3.60
2022-09-11T12:44:45.855Z,3.40
2022-09-11T12:49:55.316Z,3.20
2022-09-11T12:54:59.545Z,3.13
2022-09-11T13:00:02.460Z,2.83
2022-09-11T13:05:05.843Z,3.15
2022-09-11T13:10:09.509Z,3.03
2022-09-11T13:15:30.796Z,2.80
2022-09-11T13:20:32.153Z,2.70
2022-09-11T13:25:35.393Z,2.78
2022-09-11T13:30:36.779Z,2.80
2022-09-11T13:35:41.321Z,2.63
2022-09-11T13:41:08.793Z,2.95
2022-09-11T13:46:10.063Z,3.10
2022-09-11T13:51:29.912Z,2.40
2022-09-11T13:56:51.337Z,3.30
2022-09-11T14:01:55.433Z,2.60
2022-09-11T14:06:57.047Z,2.73
2022-09-11T14:12:02.273Z,2.40
2022-09-11T14:17:03.692Z,3.00
2022-09-11T14:22:21.822Z,2.30
2022-09-11T14:27:35.092Z,2.40
2022-09-11T14:32:43.350Z,2.40
2022-09-11T14:37:51.082Z,2.17
2022-09-11T14:42:52.762Z,2.50
2022-09-11T14:47:54.038Z,2.40
2022-09-11T14:52:55.349Z,2.70
2022-09-11T14:57:57.186Z,2.77
2022-09-11T15:03:00.274Z,2.88
2022-09-11T15:08:01.739Z,2.88
2022-09-11T15:13:03.082Z,2.90
2022-09-11T15:18:05.120Z,3.50
2022-09-11T15:23:06.521Z,3.20
2022-09-11T15:28:10.203Z,3.75
2022-09-11T15:33:11.682Z,3.27
2022-09-11T15:38:13.844Z,3.50
2022-09-11T15:43:15.118Z,3.65
2022-09-11T15:48:17.044Z,3.03
2022-09-11T15:53:18.314Z,3.20
2022-09-11T15:58:19.808Z,2.92
2022-09-11T16:03:21.658Z,3.23
2022-09-11T16:08:23.867Z,3.37
2022-09-11T16:13:25.236Z,3.40
2022-09-11T16:18:27.453Z,3.15
2022-09-11T16:23:28.756Z,3.13
2022-09-11T16:28:30.178Z,2.92
2022-09-11T16:33:32.294Z,2.80
2022-09-11T16:38:34.227Z,3.03
2022-09-11T16:43:36.469Z,2.90
2022-09-11T16:48:38.095Z,2.78
2022-09-11T16:53:41.050Z,2.80
2022-09-11T16:58:42.494Z,2.93
2022-09-11T17:03:44.783Z,3.13
2022-09-11T17:08:46.485Z,3.15
2022-09-11T17:13:48.339Z,3.30
2022-09-11T17:18:51.047Z,3.47
2022-09-11T17:23:53.389Z,3.22
2022-09-11T17:28:57.812Z,3.60
2022-09-11T17:33:59.097Z,3.00
2022-09-11T17:39:00.772Z,3.83
2022-09-11T17:44:02.080Z,3.10
2022-09-11T17:49:03.355Z,4.00
2022-09-11T17:54:04.761Z,3.75
2022-09-11T17:59:06.020Z,3.40
2022-09-11T18:04:07.310Z,4.40
2022-09-11T18:09:14.960Z,3.78
2022-09-11T18:14:18.178Z,3.72
2022-09-11T18:19:22.436Z,3.80
2022-09-11T18:24:23.950Z,3.60
2022-09-11T18:29:25.380Z,3.65
2022-09-11T18:34:27.678Z,4.10
2022-09-11T18:39:29.037Z,3.60
2022-09-11T18:44:30.298Z,3.72
2022-09-11T18:49:31.606Z,3.65
2022-09-11T18:54:33.618Z,3.30
2022-09-11T18:59:34.869Z,3.85
2022-09-11T19:04:36.124Z,3.63
2022-09-11T19:09:37.759Z,3.40
2022-09-11T19:14:39.077Z,3.70
2022-09-11T19:19:40.380Z,3.60
2022-09-11T19:24:42.482Z,3.77
2022-09-11T19:29:43.743Z,4.33
2022-09-11T19:34:47.288Z,4.32
2022-09-11T19:39:50.716Z,4.00
2022-09-11T19:44:56.102Z,3.93
2022-09-11T19:49:57.783Z,3.95
2022-09-11T19:55:00.431Z,3.83
2022-09-11T20:00:02.530Z,4.20
2022-09-11T20:05:03.855Z,3.95
2022-09-11T20:10:07.063Z,3.97
2022-09-11T20:15:08.615Z,4.07
2022-09-11T20:20:13.602Z,4.30
2022-09-11T20:25:15.131Z,4.25
2022-09-11T20:30:16.484Z,4.20
2022-09-11T20:35:17.751Z,3.87
2022-09-11T20:40:19.475Z,3.83
2022-09-11T20:45:20.774Z,4.28
2022-09-11T20:50:22.110Z,6.03
2022-09-11T20:55:23.379Z,4.20
2022-09-11T21:00:24.661Z,4.20
2022-09-11T21:05:25.946Z,4.50
2022-09-11T21:10:28.403Z,4.27
2022-09-11T21:15:29.801Z,4.18
2022-09-11T21:20:31.069Z,3.88
2022-09-11T21:25:32.477Z,4.83
2022-09-11T21:30:33.782Z,4.45
2022-09-11T21:35:35.841Z,4.53
2022-09-11T21:40:37.113Z,4.60
2022-09-11T21:45:38.337Z,4.68
2022-09-11T21:50:39.985Z,4.78
2022-09-11T21:55:42.586Z,4.63
2022-09-11T22:00:44.530Z,4.35
2022-09-11T22:05:47.740Z,4.50
2022-09-11T22:10:51.008Z,4.00
2022-09-11T22:15:52.937Z,4.80
2022-09-11T22:20:58.161Z,4.45
2022-09-11T22:26:07.355Z,4.32
2022-09-11T22:31:10.016Z,4.73
2022-09-11T22:36:13.680Z,4.78
2022-09-11T22:41:15.430Z,3.83
2022-09-11T22:46:17.485Z,4.30
2022-09-11T22:51:18.891Z,4.65
2022-09-11T22:56:20.299Z,4.72
2022-09-11T23:01:22.740Z,4.43
2022-09-11T23:06:43.060Z,5.43
2022-09-11T23:11:45.433Z,4.55
2022-09-11T23:16:46.726Z,5.10
2022-09-11T23:21:48.133Z,4.93
2022-09-11T23:26:49.478Z,4.70
2022-09-11T23:31:50.799Z,4.90
2022-09-11T23:36:52.112Z,4.40
2022-09-11T23:41:53.505Z,4.65
2022-09-11T23:46:54.783Z,4.72
2022-09-11T23:51:56.131Z,5.03
2022-09-11T23:56:57.913Z,5.13
